East Tawas, MI (48730)

1:12 PM EST on February 12, 2016 (GMT -0500)
Tawas Bay Weather | | Change Station
CLOSE
Current Station
Personal Weather Station
Location: East Tawas, MI
Elevation: 590 ft
Nearby Weather Stations

Elev 590 ft 44.28 °N, 83.48 °W | Updated 5 seconds ago

Overcast
Overcast
19.5 °F
Feels Like 9 °F
N
9.0
Wind Variable Wind from WNW
Gusts 17.0 mph

Today
High -- | Low -- °F
--% Chance of Precip.
Yesterday
High -- | Low -- °F
Precip. -- in
Pressure 29.88 in
Visibility 7.0 miles
Clouds Scattered Clouds 4100 ft
Mostly Cloudy 5000 ft
Windchill 9 °F
Dew Point 12 °F
Humidity 72%
Rainfall 0.00 in
Snow Depth Not available.
7:38 AM 5:58 PM
Waxing Crescent, 22% visible
METAR KOSC 121754Z AUTO 29019G24KT 250V310 7SM SCT041 BKN050 M06/M14 A2988 RMK AO2 T10591144 11058 21102
Pressure 29.88 in
Visibility 7.0 miles
Clouds Scattered Clouds 4100 ft
Mostly Cloudy 5000 ft
Windchill 9 °F
Dew Point 12 °F
Humidity 72%
Rainfall 0.00 in
Snow Depth Not available.
7:38 AM 5:58 PM
Waxing Crescent, 22% visible
METAR KOSC 121754Z AUTO 29019G24KT 250V310 7SM SCT041 BKN050 M06/M14 A2988 RMK AO2 T10591144 11058 21102

10-Day Weather Forecast

Almanac

Astronomy

Feb. 12, 2016 Rise Set
Actual Time
Civil Twilight
Nautical Twilight
Astronomical Twilight
Moon
Length of Visible Light
Length of Day
Tomorrow will be .
, % of the Moon is Illuminated

Today's Extremes

State Highs State Lows

Community

WunderPhotos

Upload Photos

1,892,359 photos uploaded!

WunderBlog® & News

Nearby

Air Quality

  Air Quality AQ Index Pollutant
Not available.

Snow Depth

Station Depth Elevation

Earthquake Activity

City Distance Mag. Time & Date
Minimum magnitude displayed is 2.5.

Coastal Water Temperatures

Place Temperature

Stations

Nearby Weather Stations

Station Location Temp. Windchill Dew Point Humidity Wind Precip. Elev Updated Type
                   

Watches & Warnings

There are currently no watches in effect.